Aviation Digital Data Service (ADDS)

Output produced by METARs form (1027 UTC 16 August 2018)
found at http://aviationweather.gov/adds/metars/
 
KSHV 160532Z 1606/1706 19006KT P6SM BKN250 
     FM161400 23009KT P6SM FEW015 SCT025 
     FM161700 23010KT P6SM SCT040 SCT250 
     FM161900 23010KT P6SM SCT060 SCT250 
     FM170200 18004KT P6SM SCT250